sensor_id;sensor_type;location;lat;lon;timestamp;temperature;humidity
21508;DHT22;10915;54.352;9.074;2023-03-31T00:01:17;9.70;99.90
21508;DHT22;10915;54.352;9.074;2023-03-31T00:03:44;9.80;99.90
21508;DHT22;10915;54.352;9.074;2023-03-31T00:06:11;9.80;99.90
21508;DHT22;10915;54.352;9.074;2023-03-31T00:08:42;9.70;99.90
21508;DHT22;10915;54.352;9.074;2023-03-31T00:11:08;9.80;99.90
21508;DHT22;10915;54.352;9.074;2023-03-31T00:13:35;9.80;99.90
21508;DHT22;10915;54.352;9.074;2023-03-31T00:16:06;9.70;99.90
21508;DHT22;10915;54.352;9.074;2023-03-31T00:18:33;9.70;99.90
21508;DHT22;10915;54.352;9.074;2023-03-31T00:23:31;9.80;99.90
21508;DHT22;10915;54.352;9.074;2023-03-31T00:25:57;9.80;99.90
21508;DHT22;10915;54.352;9.074;2023-03-31T00:28:22;9.90;99.90
21508;DHT22;10915;54.352;9.074;2023-03-31T00:30:49;9.80;99.90
21508;DHT22;10915;54.352;9.074;2023-03-31T00:33:14;9.80;99.90
21508;DHT22;10915;54.352;9.074;2023-03-31T00:35:40;9.80;99.90
21508;DHT22;10915;54.352;9.074;2023-03-31T00:38:06;9.80;99.90
21508;DHT22;10915;54.352;9.074;2023-03-31T00:40:43;9.80;99.90
21508;DHT22;10915;54.352;9.074;2023-03-31T00:43:59;9.90;99.90
21508;DHT22;10915;54.352;9.074;2023-03-31T00:46:30;9.90;99.90
21508;DHT22;10915;54.352;9.074;2023-03-31T00:48:57;9.90;99.90
21508;DHT22;10915;54.352;9.074;2023-03-31T00:51:26;9.90;99.90
21508;DHT22;10915;54.352;9.074;2023-03-31T00:53:56;9.90;99.90
21508;DHT22;10915;54.352;9.074;2023-03-31T00:56:26;9.90;99.90
21508;DHT22;10915;54.352;9.074;2023-03-31T00:58:56;9.90;99.90
21508;DHT22;10915;54.352;9.074;2023-03-31T01:01:25;9.90;99.90
21508;DHT22;10915;54.352;9.074;2023-03-31T01:03:51;10.00;99.90
21508;DHT22;10915;54.352;9.074;2023-03-31T01:06:17;9.90;99.90
21508;DHT22;10915;54.352;9.074;2023-03-31T01:08:49;10.00;99.90
21508;DHT22;10915;54.352;9.074;2023-03-31T01:11:19;10.00;99.90
21508;DHT22;10915;54.352;9.074;2023-03-31T01:13:45;10.00;99.90
21508;DHT22;10915;54.352;9.074;2023-03-31T01:16:14;10.00;99.90
21508;DHT22;10915;54.352;9.074;2023-03-31T01:18:40;10.00;99.90
21508;DHT22;10915;54.352;9.074;2023-03-31T01:41:07;10.00;99.90
21508;DHT22;10915;54.352;9.074;2023-03-31T01:43:40;9.90;99.90
21508;DHT22;10915;54.352;9.074;2023-03-31T01:46:31;10.00;99.90
21508;DHT22;10915;54.352;9.074;2023-03-31T01:51:59;9.90;99.90
21508;DHT22;10915;54.352;9.074;2023-03-31T01:57:26;10.00;99.90
21508;DHT22;10915;54.352;9.074;2023-03-31T02:02:31;9.90;99.90
21508;DHT22;10915;54.352;9.074;2023-03-31T02:05:02;9.90;99.90
21508;DHT22;10915;54.352;9.074;2023-03-31T02:07:42;9.90;99.90
21508;DHT22;10915;54.352;9.074;2023-03-31T02:10:11;9.90;99.90
21508;DHT22;10915;54.352;9.074;2023-03-31T02:12:40;9.90;99.90
21508;DHT22;10915;54.352;9.074;2023-03-31T02:15:09;9.90;99.90
21508;DHT22;10915;54.352;9.074;2023-03-31T02:17:37;9.90;99.90
21508;DHT22;10915;54.352;9.074;2023-03-31T02:20:08;9.90;99.90
21508;DHT22;10915;54.352;9.074;2023-03-31T02:22:38;9.90;99.90
21508;DHT22;10915;54.352;9.074;2023-03-31T02:25:08;9.90;99.90
21508;DHT22;10915;54.352;9.074;2023-03-31T02:27:38;9.90;99.90
21508;DHT22;10915;54.352;9.074;2023-03-31T02:30:05;9.90;99.90
21508;DHT22;10915;54.352;9.074;2023-03-31T02:34:58;9.90;99.90
21508;DHT22;10915;54.352;9.074;2023-03-31T02:37:24;9.90;99.90
21508;DHT22;10915;54.352;9.074;2023-03-31T02:39:52;9.90;99.90
21508;DHT22;10915;54.352;9.074;2023-03-31T02:42:20;9.90;99.90
21508;DHT22;10915;54.352;9.074;2023-03-31T02:44:46;9.90;99.90
21508;DHT22;10915;54.352;9.074;2023-03-31T02:47:14;9.90;99.90
21508;DHT22;10915;54.352;9.074;2023-03-31T02:49:52;9.90;99.90
21508;DHT22;10915;54.352;9.074;2023-03-31T03:03:36;9.90;99.90
21508;DHT22;10915;54.352;9.074;2023-03-31T03:06:32;9.90;99.90
21508;DHT22;10915;54.352;9.074;2023-03-31T03:12:16;9.90;99.90
21508;DHT22;10915;54.352;9.074;2023-03-31T03:17:43;9.90;99.90
21508;DHT22;10915;54.352;9.074;2023-03-31T03:20:11;9.90;99.90
21508;DHT22;10915;54.352;9.074;2023-03-31T03:22:38;9.80;99.90
21508;DHT22;10915;54.352;9.074;2023-03-31T03:25:05;9.80;99.90
21508;DHT22;10915;54.352;9.074;2023-03-31T03:27:31;9.80;99.90
21508;DHT22;10915;54.352;9.074;2023-03-31T03:29:57;9.80;99.90
21508;DHT22;10915;54.352;9.074;2023-03-31T03:32:23;9.80;99.90
21508;DHT22;10915;54.352;9.074;2023-03-31T03:34:49;9.80;99.90
21508;DHT22;10915;54.352;9.074;2023-03-31T03:37:14;9.80;99.90
21508;DHT22;10915;54.352;9.074;2023-03-31T03:39:40;9.80;99.90
21508;DHT22;10915;54.352;9.074;2023-03-31T03:42:05;9.90;99.90
21508;DHT22;10915;54.352;9.074;2023-03-31T03:44:31;9.90;99.90
21508;DHT22;10915;54.352;9.074;2023-03-31T03:46:57;9.90;99.90
21508;DHT22;10915;54.352;9.074;2023-03-31T03:49:23;9.80;99.90
21508;DHT22;10915;54.352;9.074;2023-03-31T03:51:48;9.90;99.90
21508;DHT22;10915;54.352;9.074;2023-03-31T03:54:15;9.90;99.90
21508;DHT22;10915;54.352;9.074;2023-03-31T03:56:41;9.90;99.90
21508;DHT22;10915;54.352;9.074;2023-03-31T03:59:07;9.90;99.90
21508;DHT22;10915;54.352;9.074;2023-03-31T04:01:32;9.90;99.90
21508;DHT22;10915;54.352;9.074;2023-03-31T04:03:58;9.90;99.90
21508;DHT22;10915;54.352;9.074;2023-03-31T04:06:24;9.90;99.90
21508;DHT22;10915;54.352;9.074;2023-03-31T04:08:49;10.00;99.90
21508;DHT22;10915;54.352;9.074;2023-03-31T04:11:17;10.00;99.90
21508;DHT22;10915;54.352;9.074;2023-03-31T04:13:43;10.00;99.90
21508;DHT22;10915;54.352;9.074;2023-03-31T04:16:10;10.10;99.90
21508;DHT22;10915;54.352;9.074;2023-03-31T04:18:36;10.00;99.90
21508;DHT22;10915;54.352;9.074;2023-03-31T04:21:11;10.00;99.90
21508;DHT22;10915;54.352;9.074;2023-03-31T04:23:40;10.00;99.90
21508;DHT22;10915;54.352;9.074;2023-03-31T04:26:17;10.00;99.90
21508;DHT22;10915;54.352;9.074;2023-03-31T04:28:44;10.00;99.90
21508;DHT22;10915;54.352;9.074;2023-03-31T04:31:14;10.10;99.90
21508;DHT22;10915;54.352;9.074;2023-03-31T04:33:52;10.10;99.90
21508;DHT22;10915;54.352;9.074;2023-03-31T04:36:18;10.10;99.90
21508;DHT22;10915;54.352;9.074;2023-03-31T04:38:49;10.00;99.90
21508;DHT22;10915;54.352;9.074;2023-03-31T04:41:17;10.00;99.90
21508;DHT22;10915;54.352;9.074;2023-03-31T04:43:43;10.00;99.90
21508;DHT22;10915;54.352;9.074;2023-03-31T04:46:09;10.10;99.90
21508;DHT22;10915;54.352;9.074;2023-03-31T04:48:35;10.00;99.90
21508;DHT22;10915;54.352;9.074;2023-03-31T04:51:00;10.10;99.90
21508;DHT22;10915;54.352;9.074;2023-03-31T04:53:26;10.10;99.90
21508;DHT22;10915;54.352;9.074;2023-03-31T04:55:52;10.10;99.90
21508;DHT22;10915;54.352;9.074;2023-03-31T04:58:18;10.10;99.90
21508;DHT22;10915;54.352;9.074;2023-03-31T05:00:44;10.10;99.90
21508;DHT22;10915;54.352;9.074;2023-03-31T05:03:09;10.20;99.90
21508;DHT22;10915;54.352;9.074;2023-03-31T05:05:35;10.20;99.90
21508;DHT22;10915;54.352;9.074;2023-03-31T05:08:04;10.20;99.90
21508;DHT22;10915;54.352;9.074;2023-03-31T05:10:30;10.20;99.90
21508;DHT22;10915;54.352;9.074;2023-03-31T05:12:56;10.20;99.90
21508;DHT22;10915;54.352;9.074;2023-03-31T05:15:22;10.20;99.90
21508;DHT22;10915;54.352;9.074;2023-03-31T05:17:51;10.20;99.90
21508;DHT22;10915;54.352;9.074;2023-03-31T05:20:17;10.30;99.90
21508;DHT22;10915;54.352;9.074;2023-03-31T05:22:44;10.30;99.90
21508;DHT22;10915;54.352;9.074;2023-03-31T05:25:11;10.30;99.90
21508;DHT22;10915;54.352;9.074;2023-03-31T05:27:47;10.30;99.90
21508;DHT22;10915;54.352;9.074;2023-03-31T05:30:13;10.30;99.90
21508;DHT22;10915;54.352;9.074;2023-03-31T05:32:39;10.40;99.90
21508;DHT22;10915;54.352;9.074;2023-03-31T05:35:06;10.40;99.90
21508;DHT22;10915;54.352;9.074;2023-03-31T05:37:32;10.40;99.90
21508;DHT22;10915;54.352;9.074;2023-03-31T05:39:58;10.40;99.90
21508;DHT22;10915;54.352;9.074;2023-03-31T05:42:23;10.50;99.90
21508;DHT22;10915;54.352;9.074;2023-03-31T05:44:49;10.50;99.90
21508;DHT22;10915;54.352;9.074;2023-03-31T05:47:15;10.50;99.90
21508;DHT22;10915;54.352;9.074;2023-03-31T05:49:41;10.50;99.90
21508;DHT22;10915;54.352;9.074;2023-03-31T05:52:09;10.50;99.90
21508;DHT22;10915;54.352;9.074;2023-03-31T05:54:35;10.60;99.90
21508;DHT22;10915;54.352;9.074;2023-03-31T05:57:01;10.60;99.90
21508;DHT22;10915;54.352;9.074;2023-03-31T05:59:26;10.60;99.90
21508;DHT22;10915;54.352;9.074;2023-03-31T06:01:52;10.60;99.90
21508;DHT22;10915;54.352;9.074;2023-03-31T06:04:19;10.60;99.90
21508;DHT22;10915;54.352;9.074;2023-03-31T06:06:45;10.60;99.90
21508;DHT22;10915;54.352;9.074;2023-03-31T06:09:14;10.60;99.90
21508;DHT22;10915;54.352;9.074;2023-03-31T06:11:40;10.60;99.90
21508;DHT22;10915;54.352;9.074;2023-03-31T06:14:05;10.60;99.90
21508;DHT22;10915;54.352;9.074;2023-03-31T06:16:31;10.70;99.90
21508;DHT22;10915;54.352;9.074;2023-03-31T06:18:57;10.70;99.90
21508;DHT22;10915;54.352;9.074;2023-03-31T06:21:23;10.80;99.90
21508;DHT22;10915;54.352;9.074;2023-03-31T06:23:49;10.80;99.90
21508;DHT22;10915;54.352;9.074;2023-03-31T06:26:18;10.80;99.90
21508;DHT22;10915;54.352;9.074;2023-03-31T06:28:44;10.80;99.90
21508;DHT22;10915;54.352;9.074;2023-03-31T06:31:16;10.90;99.90
21508;DHT22;10915;54.352;9.074;2023-03-31T06:33:43;10.90;99.90
21508;DHT22;10915;54.352;9.074;2023-03-31T06:36:10;10.80;99.90
21508;DHT22;10915;54.352;9.074;2023-03-31T06:38:37;10.80;99.90
21508;DHT22;10915;54.352;9.074;2023-03-31T06:41:03;10.80;99.90
21508;DHT22;10915;54.352;9.074;2023-03-31T06:43:30;10.90;99.90
21508;DHT22;10915;54.352;9.074;2023-03-31T06:45:55;10.90;99.90
21508;DHT22;10915;54.352;9.074;2023-03-31T06:48:22;11.00;99.90
21508;DHT22;10915;54.352;9.074;2023-03-31T06:50:48;11.00;99.90
21508;DHT22;10915;54.352;9.074;2023-03-31T06:53:14;11.10;99.90
21508;DHT22;10915;54.352;9.074;2023-03-31T06:55:40;11.10;99.90
21508;DHT22;10915;54.352;9.074;2023-03-31T06:58:06;11.20;99.90
21508;DHT22;10915;54.352;9.074;2023-03-31T07:00:32;11.20;99.90
21508;DHT22;10915;54.352;9.074;2023-03-31T07:02:57;11.20;99.90
21508;DHT22;10915;54.352;9.074;2023-03-31T07:05:23;11.20;99.90
21508;DHT22;10915;54.352;9.074;2023-03-31T07:07:55;11.30;99.90
21508;DHT22;10915;54.352;9.074;2023-03-31T07:10:22;11.30;99.90
21508;DHT22;10915;54.352;9.074;2023-03-31T07:12:48;11.40;99.90
21508;DHT22;10915;54.352;9.074;2023-03-31T07:15:14;11.40;99.90
21508;DHT22;10915;54.352;9.074;2023-03-31T07:17:40;11.40;99.90
21508;DHT22;10915;54.352;9.074;2023-03-31T07:20:13;11.40;99.90
21508;DHT22;10915;54.352;9.074;2023-03-31T07:22:40;11.50;99.90
21508;DHT22;10915;54.352;9.074;2023-03-31T07:25:10;11.50;99.90
21508;DHT22;10915;54.352;9.074;2023-03-31T07:27:37;11.50;99.90
21508;DHT22;10915;54.352;9.074;2023-03-31T07:30:04;11.50;99.90
21508;DHT22;10915;54.352;9.074;2023-03-31T07:32:30;11.50;99.90
21508;DHT22;10915;54.352;9.074;2023-03-31T07:34:57;11.60;99.90
21508;DHT22;10915;54.352;9.074;2023-03-31T07:37:23;11.60;99.90
21508;DHT22;10915;54.352;9.074;2023-03-31T07:39:49;11.60;99.90
21508;DHT22;10915;54.352;9.074;2023-03-31T07:42:15;11.60;99.90
21508;DHT22;10915;54.352;9.074;2023-03-31T07:44:40;11.60;99.90
21508;DHT22;10915;54.352;9.074;2023-03-31T07:47:06;11.60;99.90
21508;DHT22;10915;54.352;9.074;2023-03-31T07:49:33;11.60;99.90
21508;DHT22;10915;54.352;9.074;2023-03-31T07:51:59;11.60;99.90
21508;DHT22;10915;54.352;9.074;2023-03-31T07:54:25;11.60;99.90
21508;DHT22;10915;54.352;9.074;2023-03-31T07:56:51;11.60;99.90
21508;DHT22;10915;54.352;9.074;2023-03-31T07:59:17;11.60;99.90
21508;DHT22;10915;54.352;9.074;2023-03-31T08:01:42;11.70;99.90
21508;DHT22;10915;54.352;9.074;2023-03-31T08:04:09;11.70;99.90
21508;DHT22;10915;54.352;9.074;2023-03-31T08:06:35;11.80;99.90
21508;DHT22;10915;54.352;9.074;2023-03-31T08:09:02;11.80;99.90
21508;DHT22;10915;54.352;9.074;2023-03-31T08:11:29;11.80;99.90
21508;DHT22;10915;54.352;9.074;2023-03-31T08:13:55;11.80;99.90
21508;DHT22;10915;54.352;9.074;2023-03-31T08:16:21;11.80;99.90
21508;DHT22;10915;54.352;9.074;2023-03-31T08:18:46;11.80;99.90
21508;DHT22;10915;54.352;9.074;2023-03-31T08:21:12;11.70;99.90
21508;DHT22;10915;54.352;9.074;2023-03-31T08:23:38;11.70;99.90
21508;DHT22;10915;54.352;9.074;2023-03-31T08:26:08;11.80;99.90
21508;DHT22;10915;54.352;9.074;2023-03-31T08:28:34;11.80;99.90
21508;DHT22;10915;54.352;9.074;2023-03-31T08:31:07;11.80;99.90
21508;DHT22;10915;54.352;9.074;2023-03-31T08:33:33;11.90;99.90
21508;DHT22;10915;54.352;9.074;2023-03-31T08:36:03;11.90;99.90
21508;DHT22;10915;54.352;9.074;2023-03-31T08:38:30;11.90;99.90
21508;DHT22;10915;54.352;9.074;2023-03-31T08:41:01;12.00;99.90
21508;DHT22;10915;54.352;9.074;2023-03-31T08:43:38;12.00;99.90
21508;DHT22;10915;54.352;9.074;2023-03-31T08:46:05;11.90;99.90
21508;DHT22;10915;54.352;9.074;2023-03-31T08:48:44;11.90;99.90
21508;DHT22;10915;54.352;9.074;2023-03-31T08:51:26;12.00;99.90
21508;DHT22;10915;54.352;9.074;2023-03-31T08:56:34;12.10;99.90
21508;DHT22;10915;54.352;9.074;2023-03-31T08:59:04;12.10;99.90
21508;DHT22;10915;54.352;9.074;2023-03-31T09:07:53;12.10;99.90
21508;DHT22;10915;54.352;9.074;2023-03-31T09:12:40;12.10;99.90
21508;DHT22;10915;54.352;9.074;2023-03-31T09:15:25;12.10;99.90
21508;DHT22;10915;54.352;9.074;2023-03-31T09:17:51;12.10;99.90
21508;DHT22;10915;54.352;9.074;2023-03-31T09:20:24;12.00;99.90
21508;DHT22;10915;54.352;9.074;2023-03-31T09:23:10;12.10;99.90
21508;DHT22;10915;54.352;9.074;2023-03-31T09:25:40;12.10;99.90
21508;DHT22;10915;54.352;9.074;2023-03-31T09:28:25;12.00;99.90
21508;DHT22;10915;54.352;9.074;2023-03-31T09:30:54;12.00;99.90
21508;DHT22;10915;54.352;9.074;2023-03-31T09:33:29;12.00;99.90
21508;DHT22;10915;54.352;9.074;2023-03-31T09:36:01;12.10;99.90
21508;DHT22;10915;54.352;9.074;2023-03-31T09:38:27;12.10;99.90
21508;DHT22;10915;54.352;9.074;2023-03-31T09:40:57;12.10;99.90
21508;DHT22;10915;54.352;9.074;2023-03-31T09:43:25;12.10;99.90
21508;DHT22;10915;54.352;9.074;2023-03-31T09:45:52;12.10;99.90
21508;DHT22;10915;54.352;9.074;2023-03-31T09:48:20;12.20;99.90
21508;DHT22;10915;54.352;9.074;2023-03-31T09:51:00;12.10;99.90
21508;DHT22;10915;54.352;9.074;2023-03-31T09:53:46;12.20;99.90
21508;DHT22;10915;54.352;9.074;2023-03-31T09:56:13;12.10;99.90
21508;DHT22;10915;54.352;9.074;2023-03-31T10:01:25;12.10;99.90
21508;DHT22;10915;54.352;9.074;2023-03-31T10:03:53;12.10;99.90
21508;DHT22;10915;54.352;9.074;2023-03-31T10:06:20;12.10;99.90
21508;DHT22;10915;54.352;9.074;2023-03-31T10:11:14;12.10;99.90
21508;DHT22;10915;54.352;9.074;2023-03-31T10:13:47;12.10;99.90
21508;DHT22;10915;54.352;9.074;2023-03-31T10:18:52;12.30;99.90
21508;DHT22;10915;54.352;9.074;2023-03-31T10:21:26;12.30;99.90
21508;DHT22;10915;54.352;9.074;2023-03-31T10:23:53;12.30;99.90
21508;DHT22;10915;54.352;9.074;2023-03-31T10:26:22;12.40;99.90
21508;DHT22;10915;54.352;9.074;2023-03-31T10:28:50;12.40;99.90
21508;DHT22;10915;54.352;9.074;2023-03-31T10:31:18;12.30;99.90
21508;DHT22;10915;54.352;9.074;2023-03-31T10:33:47;12.30;99.90
21508;DHT22;10915;54.352;9.074;2023-03-31T10:36:23;12.40;99.90
21508;DHT22;10915;54.352;9.074;2023-03-31T10:38:50;12.50;99.90
21508;DHT22;10915;54.352;9.074;2023-03-31T10:41:22;12.50;99.90
21508;DHT22;10915;54.352;9.074;2023-03-31T10:43:52;12.60;99.90
21508;DHT22;10915;54.352;9.074;2023-03-31T10:46:18;12.60;99.90
21508;DHT22;10915;54.352;9.074;2023-03-31T10:48:45;12.70;99.90
21508;DHT22;10915;54.352;9.074;2023-03-31T10:51:25;12.70;99.90
21508;DHT22;10915;54.352;9.074;2023-03-31T10:53:59;12.70;99.90
21508;DHT22;10915;54.352;9.074;2023-03-31T11:04:58;12.80;99.90
21508;DHT22;10915;54.352;9.074;2023-03-31T11:18:56;13.90;99.90
21508;DHT22;10915;54.352;9.074;2023-03-31T11:21:28;14.10;99.90
21508;DHT22;10915;54.352;9.074;2023-03-31T11:29:31;14.70;99.90
21508;DHT22;10915;54.352;9.074;2023-03-31T11:32:39;14.70;99.90
21508;DHT22;10915;54.352;9.074;2023-03-31T11:35:11;14.50;99.90
21508;DHT22;10915;54.352;9.074;2023-03-31T11:37:53;14.40;99.90
21508;DHT22;10915;54.352;9.074;2023-03-31T11:40:48;14.30;99.90
21508;DHT22;10915;54.352;9.074;2023-03-31T11:46:16;14.20;99.90
21508;DHT22;10915;54.352;9.074;2023-03-31T11:49:02;14.20;99.90
21508;DHT22;10915;54.352;9.074;2023-03-31T11:54:34;14.10;99.90
21508;DHT22;10915;54.352;9.074;2023-03-31T11:57:06;14.10;99.90
21508;DHT22;10915;54.352;9.074;2023-03-31T11:59:35;14.10;99.90
21508;DHT22;10915;54.352;9.074;2023-03-31T12:02:37;14.10;99.90
21508;DHT22;10915;54.352;9.074;2023-03-31T12:05:06;14.10;99.90
21508;DHT22;10915;54.352;9.074;2023-03-31T12:07:42;14.00;99.90
21508;DHT22;10915;54.352;9.074;2023-03-31T12:10:24;14.00;99.90
21508;DHT22;10915;54.352;9.074;2023-03-31T12:13:04;14.00;99.90
21508;DHT22;10915;54.352;9.074;2023-03-31T12:15:42;13.90;99.90
21508;DHT22;10915;54.352;9.074;2023-03-31T12:18:17;13.70;99.90
21508;DHT22;10915;54.352;9.074;2023-03-31T12:21:02;13.70;99.90
21508;DHT22;10915;54.352;9.074;2023-03-31T12:23:42;13.70;99.90
21508;DHT22;10915;54.352;9.074;2023-03-31T12:29:16;13.50;99.90
21508;DHT22;10915;54.352;9.074;2023-03-31T12:31:46;13.40;99.90
21508;DHT22;10915;54.352;9.074;2023-03-31T12:34:15;13.50;99.90
21508;DHT22;10915;54.352;9.074;2023-03-31T12:42:10;13.50;99.90
21508;DHT22;10915;54.352;9.074;2023-03-31T12:55:44;12.80;99.90
21508;DHT22;10915;54.352;9.074;2023-03-31T13:09:00;13.00;99.90
21508;DHT22;10915;54.352;9.074;2023-03-31T13:14:23;13.10;99.90
21508;DHT22;10915;54.352;9.074;2023-03-31T13:16:50;13.10;99.90
21508;DHT22;10915;54.352;9.074;2023-03-31T13:19:33;13.10;99.90
21508;DHT22;10915;54.352;9.074;2023-03-31T13:22:01;13.20;99.90
21508;DHT22;10915;54.352;9.074;2023-03-31T13:24:28;13.10;99.90
21508;DHT22;10915;54.352;9.074;2023-03-31T13:26:56;13.10;99.90
21508;DHT22;10915;54.352;9.074;2023-03-31T13:29:37;13.40;99.90
21508;DHT22;10915;54.352;9.074;2023-03-31T13:32:04;13.60;99.90
21508;DHT22;10915;54.352;9.074;2023-03-31T13:34:34;13.70;99.90
21508;DHT22;10915;54.352;9.074;2023-03-31T13:42:37;13.70;99.90
21508;DHT22;10915;54.352;9.074;2023-03-31T13:48:38;13.60;99.90
21508;DHT22;10915;54.352;9.074;2023-03-31T13:54:02;13.40;99.90
21508;DHT22;10915;54.352;9.074;2023-03-31T13:56:53;13.10;99.90
21508;DHT22;10915;54.352;9.074;2023-03-31T14:02:44;12.70;99.90
21508;DHT22;10915;54.352;9.074;2023-03-31T14:08:38;12.70;99.90
21508;DHT22;10915;54.352;9.074;2023-03-31T14:11:19;12.70;99.90
21508;DHT22;10915;54.352;9.074;2023-03-31T14:14:02;12.50;99.90
21508;DHT22;10915;54.352;9.074;2023-03-31T14:16:30;12.60;99.90
21508;DHT22;10915;54.352;9.074;2023-03-31T14:25:04;12.70;99.90
21508;DHT22;10915;54.352;9.074;2023-03-31T14:27:46;12.70;99.90
21508;DHT22;10915;54.352;9.074;2023-03-31T14:30:26;12.70;99.90
21508;DHT22;10915;54.352;9.074;2023-03-31T14:38:18;12.90;99.90
21508;DHT22;10915;54.352;9.074;2023-03-31T14:40:52;12.80;99.90
21508;DHT22;10915;54.352;9.074;2023-03-31T14:43:22;12.80;99.90
21508;DHT22;10915;54.352;9.074;2023-03-31T14:46:01;12.90;99.90
21508;DHT22;10915;54.352;9.074;2023-03-31T14:48:28;12.80;99.90
21508;DHT22;10915;54.352;9.074;2023-03-31T14:50:57;12.90;99.90
21508;DHT22;10915;54.352;9.074;2023-03-31T14:53:25;13.10;99.90
21508;DHT22;10915;54.352;9.074;2023-03-31T14:56:00;13.10;99.90
21508;DHT22;10915;54.352;9.074;2023-03-31T14:58:30;13.10;99.90
21508;DHT22;10915;54.352;9.074;2023-03-31T15:00:59;13.20;99.90
21508;DHT22;10915;54.352;9.074;2023-03-31T15:03:26;13.10;99.90
21508;DHT22;10915;54.352;9.074;2023-03-31T15:05:57;13.10;99.90
21508;DHT22;10915;54.352;9.074;2023-03-31T15:08:23;13.00;99.90
21508;DHT22;10915;54.352;9.074;2023-03-31T15:10:52;13.00;99.90
21508;DHT22;10915;54.352;9.074;2023-03-31T15:13:35;12.90;99.90
21508;DHT22;10915;54.352;9.074;2023-03-31T15:18:56;12.70;99.90
21508;DHT22;10915;54.352;9.074;2023-03-31T15:21:24;12.80;99.90
21508;DHT22;10915;54.352;9.074;2023-03-31T15:23:51;12.90;99.90
21508;DHT22;10915;54.352;9.074;2023-03-31T15:26:19;12.90;99.90
21508;DHT22;10915;54.352;9.074;2023-03-31T15:28:52;13.00;99.90
21508;DHT22;10915;54.352;9.074;2023-03-31T15:31:19;13.00;99.90
21508;DHT22;10915;54.352;9.074;2023-03-31T15:33:45;13.20;99.90
21508;DHT22;10915;54.352;9.074;2023-03-31T15:36:12;13.10;99.90
21508;DHT22;10915;54.352;9.074;2023-03-31T15:38:38;13.10;99.90
21508;DHT22;10915;54.352;9.074;2023-03-31T15:41:11;13.00;99.90
21508;DHT22;10915;54.352;9.074;2023-03-31T15:46:10;12.90;99.90
21508;DHT22;10915;54.352;9.074;2023-03-31T15:48:47;12.80;99.90
21508;DHT22;10915;54.352;9.074;2023-03-31T15:53:47;13.00;99.90
21508;DHT22;10915;54.352;9.074;2023-03-31T15:56:33;12.90;99.90
21508;DHT22;10915;54.352;9.074;2023-03-31T15:59:01;12.90;99.90
21508;DHT22;10915;54.352;9.074;2023-03-31T16:01:43;12.90;99.90
21508;DHT22;10915;54.352;9.074;2023-03-31T16:04:12;13.00;99.90
21508;DHT22;10915;54.352;9.074;2023-03-31T16:06:54;13.10;99.90
21508;DHT22;10915;54.352;9.074;2023-03-31T16:09:28;13.20;99.90
21508;DHT22;10915;54.352;9.074;2023-03-31T16:12:03;13.20;99.90
21508;DHT22;10915;54.352;9.074;2023-03-31T16:15:04;13.30;99.90
21508;DHT22;10915;54.352;9.074;2023-03-31T16:17:37;13.30;99.90
21508;DHT22;10915;54.352;9.074;2023-03-31T16:20:09;13.30;99.90
21508;DHT22;10915;54.352;9.074;2023-03-31T16:22:44;13.20;99.90
21508;DHT22;10915;54.352;9.074;2023-03-31T16:25:14;13.20;99.90
21508;DHT22;10915;54.352;9.074;2023-03-31T16:27:47;13.20;99.90
21508;DHT22;10915;54.352;9.074;2023-03-31T16:30:17;13.20;99.90
21508;DHT22;10915;54.352;9.074;2023-03-31T16:33:21;13.20;99.90
21508;DHT22;10915;54.352;9.074;2023-03-31T16:35:52;13.20;99.90
21508;DHT22;10915;54.352;9.074;2023-03-31T16:38:26;13.20;99.90
21508;DHT22;10915;54.352;9.074;2023-03-31T16:40:54;13.10;99.90
21508;DHT22;10915;54.352;9.074;2023-03-31T16:43:28;13.10;99.90
21508;DHT22;10915;54.352;9.074;2023-03-31T16:45:59;13.10;99.90
21508;DHT22;10915;54.352;9.074;2023-03-31T16:48:27;13.10;99.90
21508;DHT22;10915;54.352;9.074;2023-03-31T16:50:57;13.00;99.90
21508;DHT22;10915;54.352;9.074;2023-03-31T16:53:32;12.80;99.90
21508;DHT22;10915;54.352;9.074;2023-03-31T16:56:02;12.90;99.90
21508;DHT22;10915;54.352;9.074;2023-03-31T16:58:28;12.80;99.90
21508;DHT22;10915;54.352;9.074;2023-03-31T17:00:55;12.80;99.90
21508;DHT22;10915;54.352;9.074;2023-03-31T17:03:21;12.80;99.90
21508;DHT22;10915;54.352;9.074;2023-03-31T17:05:52;12.80;99.90
21508;DHT22;10915;54.352;9.074;2023-03-31T17:08:21;12.80;99.90
21508;DHT22;10915;54.352;9.074;2023-03-31T17:11:13;12.80;99.90
21508;DHT22;10915;54.352;9.074;2023-03-31T17:13:41;12.80;99.90
21508;DHT22;10915;54.352;9.074;2023-03-31T17:16:08;12.70;99.90
21508;DHT22;10915;54.352;9.074;2023-03-31T17:18:34;12.70;99.90
21508;DHT22;10915;54.352;9.074;2023-03-31T17:21:08;12.60;99.90
21508;DHT22;10915;54.352;9.074;2023-03-31T17:23:35;12.60;99.90
21508;DHT22;10915;54.352;9.074;2023-03-31T17:26:01;12.60;99.90
21508;DHT22;10915;54.352;9.074;2023-03-31T17:28:29;12.50;99.90
21508;DHT22;10915;54.352;9.074;2023-03-31T17:30:55;12.40;99.90
21508;DHT22;10915;54.352;9.074;2023-03-31T17:33:22;12.40;99.90
21508;DHT22;10915;54.352;9.074;2023-03-31T17:35:47;12.30;99.90
21508;DHT22;10915;54.352;9.074;2023-03-31T17:38:13;12.20;99.90
21508;DHT22;10915;54.352;9.074;2023-03-31T17:40:40;12.20;99.90
21508;DHT22;10915;54.352;9.074;2023-03-31T17:43:06;12.20;99.90
21508;DHT22;10915;54.352;9.074;2023-03-31T17:45:32;12.20;99.90
21508;DHT22;10915;54.352;9.074;2023-03-31T17:47:58;12.10;99.90
21508;DHT22;10915;54.352;9.074;2023-03-31T17:50:25;12.10;99.90
21508;DHT22;10915;54.352;9.074;2023-03-31T17:52:51;12.10;99.90
21508;DHT22;10915;54.352;9.074;2023-03-31T17:55:18;12.00;99.90
21508;DHT22;10915;54.352;9.074;2023-03-31T17:57:44;11.80;99.90
21508;DHT22;10915;54.352;9.074;2023-03-31T18:00:11;11.80;99.90
21508;DHT22;10915;54.352;9.074;2023-03-31T18:02:40;11.80;99.90
21508;DHT22;10915;54.352;9.074;2023-03-31T18:05:06;11.80;99.90
21508;DHT22;10915;54.352;9.074;2023-03-31T18:07:33;11.80;99.90
21508;DHT22;10915;54.352;9.074;2023-03-31T18:09:59;11.80;99.90
21508;DHT22;10915;54.352;9.074;2023-03-31T18:12:24;11.70;99.90
21508;DHT22;10915;54.352;9.074;2023-03-31T18:14:51;11.70;99.90
21508;DHT22;10915;54.352;9.074;2023-03-31T18:17:17;11.70;99.90
21508;DHT22;10915;54.352;9.074;2023-03-31T18:19:43;11.50;99.90
21508;DHT22;10915;54.352;9.074;2023-03-31T18:22:09;11.40;99.90
21508;DHT22;10915;54.352;9.074;2023-03-31T18:24:35;11.40;99.90
21508;DHT22;10915;54.352;9.074;2023-03-31T18:27:03;11.40;99.90
21508;DHT22;10915;54.352;9.074;2023-03-31T18:29:29;11.30;99.90
21508;DHT22;10915;54.352;9.074;2023-03-31T18:31:55;11.30;99.90
21508;DHT22;10915;54.352;9.074;2023-03-31T18:34:21;11.30;99.90
21508;DHT22;10915;54.352;9.074;2023-03-31T18:36:47;11.30;99.90
21508;DHT22;10915;54.352;9.074;2023-03-31T18:39:13;11.30;99.90
21508;DHT22;10915;54.352;9.074;2023-03-31T18:41:43;11.30;99.90